sensor_id;sensor_type;location;lat;lon;timestamp;P1;durP1;ratioP1;P2;durP2;ratioP2
15356;SDS011;7778;48.792;9.260;2023-09-30T00:00:21;8.30;;;3.17;;
15356;SDS011;7778;48.792;9.260;2023-09-30T00:03:07;7.65;;;2.58;;
15356;SDS011;7778;48.792;9.260;2023-09-30T00:05:57;7.93;;;2.58;;
15356;SDS011;7778;48.792;9.260;2023-09-30T00:08:43;6.05;;;2.95;;
15356;SDS011;7778;48.792;9.260;2023-09-30T00:11:30;7.80;;;2.70;;
15356;SDS011;7778;48.792;9.260;2023-09-30T00:14:16;5.10;;;2.00;;
15356;SDS011;7778;48.792;9.260;2023-09-30T00:17:02;5.63;;;2.50;;
15356;SDS011;7778;48.792;9.260;2023-09-30T00:19:48;7.53;;;2.70;;
15356;SDS011;7778;48.792;9.260;2023-09-30T00:22:34;5.85;;;2.50;;
15356;SDS011;7778;48.792;9.260;2023-09-30T00:25:20;4.72;;;2.05;;
15356;SDS011;7778;48.792;9.260;2023-09-30T00:28:07;4.63;;;2.30;;
15356;SDS011;7778;48.792;9.260;2023-09-30T00:30:52;4.28;;;1.70;;
15356;SDS011;7778;48.792;9.260;2023-09-30T00:33:38;4.40;;;2.05;;
15356;SDS011;7778;48.792;9.260;2023-09-30T00:36:24;6.57;;;1.60;;
15356;SDS011;7778;48.792;9.260;2023-09-30T00:39:09;4.40;;;1.85;;
15356;SDS011;7778;48.792;9.260;2023-09-30T00:41:55;4.30;;;1.90;;
15356;SDS011;7778;48.792;9.260;2023-09-30T00:44:44;3.75;;;1.80;;
15356;SDS011;7778;48.792;9.260;2023-09-30T00:47:31;4.05;;;1.90;;
15356;SDS011;7778;48.792;9.260;2023-09-30T00:50:17;7.00;;;2.00;;
15356;SDS011;7778;48.792;9.260;2023-09-30T00:53:05;4.95;;;2.28;;
15356;SDS011;7778;48.792;9.260;2023-09-30T00:55:52;1.70;;;1.35;;
15356;SDS011;7778;48.792;9.260;2023-09-30T00:58:38;3.85;;;1.80;;
15356;SDS011;7778;48.792;9.260;2023-09-30T01:01:26;2.65;;;1.52;;
15356;SDS011;7778;48.792;9.260;2023-09-30T01:04:13;4.50;;;1.65;;
15356;SDS011;7778;48.792;9.260;2023-09-30T01:06:59;4.10;;;1.85;;
15356;SDS011;7778;48.792;9.260;2023-09-30T01:09:45;3.03;;;1.63;;
15356;SDS011;7778;48.792;9.260;2023-09-30T01:12:31;3.60;;;1.67;;
15356;SDS011;7778;48.792;9.260;2023-09-30T01:15:17;2.15;;;1.42;;
15356;SDS011;7778;48.792;9.260;2023-09-30T01:18:05;1.85;;;1.20;;
15356;SDS011;7778;48.792;9.260;2023-09-30T01:20:50;4.55;;;1.60;;
15356;SDS011;7778;48.792;9.260;2023-09-30T01:23:39;3.95;;;1.90;;
15356;SDS011;7778;48.792;9.260;2023-09-30T01:26:24;2.45;;;1.73;;
15356;SDS011;7778;48.792;9.260;2023-09-30T01:29:10;1.88;;;1.67;;
15356;SDS011;7778;48.792;9.260;2023-09-30T01:31:55;3.78;;;1.60;;
15356;SDS011;7778;48.792;9.260;2023-09-30T01:34:41;4.80;;;1.70;;
15356;SDS011;7778;48.792;9.260;2023-09-30T01:37:26;3.53;;;1.83;;
15356;SDS011;7778;48.792;9.260;2023-09-30T01:40:14;3.90;;;2.00;;
15356;SDS011;7778;48.792;9.260;2023-09-30T01:43:01;4.13;;;2.22;;
15356;SDS011;7778;48.792;9.260;2023-09-30T01:45:47;3.25;;;1.90;;
15356;SDS011;7778;48.792;9.260;2023-09-30T01:48:33;3.70;;;1.88;;
15356;SDS011;7778;48.792;9.260;2023-09-30T01:51:18;2.65;;;1.60;;
15356;SDS011;7778;48.792;9.260;2023-09-30T01:54:05;3.67;;;1.88;;
15356;SDS011;7778;48.792;9.260;2023-09-30T01:56:52;4.25;;;1.90;;
15356;SDS011;7778;48.792;9.260;2023-09-30T01:59:37;5.32;;;2.03;;
15356;SDS011;7778;48.792;9.260;2023-09-30T02:02:23;3.72;;;1.67;;
15356;SDS011;7778;48.792;9.260;2023-09-30T02:05:09;2.50;;;1.95;;
15356;SDS011;7778;48.792;9.260;2023-09-30T02:07:58;3.97;;;1.88;;
15356;SDS011;7778;48.792;9.260;2023-09-30T02:10:49;3.33;;;2.10;;
15356;SDS011;7778;48.792;9.260;2023-09-30T02:13:37;3.30;;;2.03;;
15356;SDS011;7778;48.792;9.260;2023-09-30T02:16:23;5.07;;;2.30;;
15356;SDS011;7778;48.792;9.260;2023-09-30T02:19:09;3.80;;;2.25;;
15356;SDS011;7778;48.792;9.260;2023-09-30T02:21:56;3.55;;;2.10;;
15356;SDS011;7778;48.792;9.260;2023-09-30T02:24:42;3.85;;;1.80;;
15356;SDS011;7778;48.792;9.260;2023-09-30T02:27:28;3.13;;;1.70;;
15356;SDS011;7778;48.792;9.260;2023-09-30T02:30:15;4.53;;;2.17;;
15356;SDS011;7778;48.792;9.260;2023-09-30T02:33:01;3.72;;;2.47;;
15356;SDS011;7778;48.792;9.260;2023-09-30T02:35:48;4.82;;;2.30;;
15356;SDS011;7778;48.792;9.260;2023-09-30T02:38:33;3.50;;;2.03;;
15356;SDS011;7778;48.792;9.260;2023-09-30T02:41:20;3.80;;;2.10;;
15356;SDS011;7778;48.792;9.260;2023-09-30T02:44:06;3.20;;;2.38;;
15356;SDS011;7778;48.792;9.260;2023-09-30T02:46:52;3.50;;;2.30;;
15356;SDS011;7778;48.792;9.260;2023-09-30T02:49:38;3.97;;;2.25;;
15356;SDS011;7778;48.792;9.260;2023-09-30T02:52:24;3.50;;;2.30;;
15356;SDS011;7778;48.792;9.260;2023-09-30T02:55:10;6.38;;;2.30;;
15356;SDS011;7778;48.792;9.260;2023-09-30T02:57:56;2.78;;;2.10;;
15356;SDS011;7778;48.792;9.260;2023-09-30T03:00:44;4.60;;;2.35;;
15356;SDS011;7778;48.792;9.260;2023-09-30T03:03:34;4.57;;;2.25;;
15356;SDS011;7778;48.792;9.260;2023-09-30T03:06:21;6.88;;;3.20;;
15356;SDS011;7778;48.792;9.260;2023-09-30T03:09:07;4.53;;;2.40;;
15356;SDS011;7778;48.792;9.260;2023-09-30T03:11:53;4.93;;;2.90;;
15356;SDS011;7778;48.792;9.260;2023-09-30T03:14:39;4.30;;;3.05;;
15356;SDS011;7778;48.792;9.260;2023-09-30T03:17:26;7.05;;;3.03;;
15356;SDS011;7778;48.792;9.260;2023-09-30T03:20:14;3.65;;;2.60;;
15356;SDS011;7778;48.792;9.260;2023-09-30T03:23:03;5.15;;;2.67;;
15356;SDS011;7778;48.792;9.260;2023-09-30T03:25:49;6.63;;;2.38;;
15356;SDS011;7778;48.792;9.260;2023-09-30T03:28:34;3.58;;;2.45;;
15356;SDS011;7778;48.792;9.260;2023-09-30T03:31:20;6.10;;;3.05;;
15356;SDS011;7778;48.792;9.260;2023-09-30T03:34:06;4.57;;;3.05;;
15356;SDS011;7778;48.792;9.260;2023-09-30T03:36:54;7.28;;;3.50;;
15356;SDS011;7778;48.792;9.260;2023-09-30T03:39:42;5.63;;;2.67;;
15356;SDS011;7778;48.792;9.260;2023-09-30T03:42:27;5.38;;;2.63;;
15356;SDS011;7778;48.792;9.260;2023-09-30T03:45:13;5.13;;;2.70;;
15356;SDS011;7778;48.792;9.260;2023-09-30T03:48:00;4.53;;;2.70;;
15356;SDS011;7778;48.792;9.260;2023-09-30T03:50:47;6.82;;;3.28;;
15356;SDS011;7778;48.792;9.260;2023-09-30T03:53:34;6.15;;;3.17;;
15356;SDS011;7778;48.792;9.260;2023-09-30T03:56:19;6.75;;;2.38;;
15356;SDS011;7778;48.792;9.260;2023-09-30T03:59:06;4.18;;;2.78;;
15356;SDS011;7778;48.792;9.260;2023-09-30T04:01:52;9.65;;;3.40;;
15356;SDS011;7778;48.792;9.260;2023-09-30T04:04:38;4.63;;;2.80;;
15356;SDS011;7778;48.792;9.260;2023-09-30T04:07:24;4.57;;;2.60;;
15356;SDS011;7778;48.792;9.260;2023-09-30T04:10:12;6.40;;;3.65;;
15356;SDS011;7778;48.792;9.260;2023-09-30T04:12:58;6.65;;;2.70;;
15356;SDS011;7778;48.792;9.260;2023-09-30T04:15:43;8.80;;;3.33;;
15356;SDS011;7778;48.792;9.260;2023-09-30T04:18:30;6.22;;;2.80;;
15356;SDS011;7778;48.792;9.260;2023-09-30T04:21:16;8.15;;;2.95;;
15356;SDS011;7778;48.792;9.260;2023-09-30T04:24:01;4.85;;;2.70;;
15356;SDS011;7778;48.792;9.260;2023-09-30T04:26:49;7.53;;;2.85;;
15356;SDS011;7778;48.792;9.260;2023-09-30T04:29:38;5.15;;;2.80;;
15356;SDS011;7778;48.792;9.260;2023-09-30T04:32:25;7.97;;;2.97;;
15356;SDS011;7778;48.792;9.260;2023-09-30T04:35:11;7.80;;;3.22;;
15356;SDS011;7778;48.792;9.260;2023-09-30T04:37:57;7.68;;;3.25;;
15356;SDS011;7778;48.792;9.260;2023-09-30T04:40:44;4.30;;;2.63;;
15356;SDS011;7778;48.792;9.260;2023-09-30T04:43:33;7.38;;;3.15;;
15356;SDS011;7778;48.792;9.260;2023-09-30T04:46:22;7.63;;;3.22;;
15356;SDS011;7778;48.792;9.260;2023-09-30T04:49:07;6.40;;;2.45;;
15356;SDS011;7778;48.792;9.260;2023-09-30T04:51:54;8.60;;;3.63;;
15356;SDS011;7778;48.792;9.260;2023-09-30T04:54:39;5.38;;;3.00;;
15356;SDS011;7778;48.792;9.260;2023-09-30T04:57:25;4.55;;;3.25;;
15356;SDS011;7778;48.792;9.260;2023-09-30T05:00:13;4.22;;;2.70;;
15356;SDS011;7778;48.792;9.260;2023-09-30T05:03:01;7.45;;;3.25;;
15356;SDS011;7778;48.792;9.260;2023-09-30T05:05:48;7.97;;;3.30;;
15356;SDS011;7778;48.792;9.260;2023-09-30T05:08:34;5.20;;;2.72;;
15356;SDS011;7778;48.792;9.260;2023-09-30T05:11:19;4.30;;;2.65;;
15356;SDS011;7778;48.792;9.260;2023-09-30T05:14:04;7.75;;;3.20;;
15356;SDS011;7778;48.792;9.260;2023-09-30T05:16:51;5.07;;;2.67;;
15356;SDS011;7778;48.792;9.260;2023-09-30T05:19:38;4.28;;;2.65;;
15356;SDS011;7778;48.792;9.260;2023-09-30T05:22:23;5.53;;;3.15;;
15356;SDS011;7778;48.792;9.260;2023-09-30T05:25:10;7.70;;;2.75;;
15356;SDS011;7778;48.792;9.260;2023-09-30T05:27:56;6.32;;;2.92;;
15356;SDS011;7778;48.792;9.260;2023-09-30T05:30:41;6.00;;;2.88;;
15356;SDS011;7778;48.792;9.260;2023-09-30T05:33:28;5.13;;;2.40;;
15356;SDS011;7778;48.792;9.260;2023-09-30T05:36:14;6.32;;;3.03;;
15356;SDS011;7778;48.792;9.260;2023-09-30T05:38:59;4.47;;;3.08;;
15356;SDS011;7778;48.792;9.260;2023-09-30T05:41:46;6.50;;;2.67;;
15356;SDS011;7778;48.792;9.260;2023-09-30T05:44:32;7.32;;;2.97;;
15356;SDS011;7778;48.792;9.260;2023-09-30T05:47:17;7.43;;;3.28;;
15356;SDS011;7778;48.792;9.260;2023-09-30T05:50:05;6.63;;;3.45;;
15356;SDS011;7778;48.792;9.260;2023-09-30T05:52:53;5.32;;;2.70;;
15356;SDS011;7778;48.792;9.260;2023-09-30T05:55:40;6.32;;;3.05;;
15356;SDS011;7778;48.792;9.260;2023-09-30T05:58:26;9.57;;;3.08;;
15356;SDS011;7778;48.792;9.260;2023-09-30T06:01:12;6.88;;;2.70;;
15356;SDS011;7778;48.792;9.260;2023-09-30T06:03:59;5.55;;;2.85;;
15356;SDS011;7778;48.792;9.260;2023-09-30T06:06:46;5.30;;;2.88;;
15356;SDS011;7778;48.792;9.260;2023-09-30T06:09:32;5.78;;;2.95;;
15356;SDS011;7778;48.792;9.260;2023-09-30T06:12:17;6.00;;;2.95;;
15356;SDS011;7778;48.792;9.260;2023-09-30T06:15:03;3.92;;;2.55;;
15356;SDS011;7778;48.792;9.260;2023-09-30T06:17:50;6.50;;;3.20;;
15356;SDS011;7778;48.792;9.260;2023-09-30T06:20:36;11.15;;;3.22;;
15356;SDS011;7778;48.792;9.260;2023-09-30T06:23:23;5.70;;;2.58;;
15356;SDS011;7778;48.792;9.260;2023-09-30T06:26:09;4.57;;;2.55;;
15356;SDS011;7778;48.792;9.260;2023-09-30T06:28:54;7.95;;;3.00;;
15356;SDS011;7778;48.792;9.260;2023-09-30T06:31:40;4.68;;;2.70;;
15356;SDS011;7778;48.792;9.260;2023-09-30T06:34:25;3.72;;;2.63;;
15356;SDS011;7778;48.792;9.260;2023-09-30T06:37:11;6.60;;;2.83;;
15356;SDS011;7778;48.792;9.260;2023-09-30T06:39:58;5.28;;;2.72;;
15356;SDS011;7778;48.792;9.260;2023-09-30T06:42:46;4.68;;;2.70;;
15356;SDS011;7778;48.792;9.260;2023-09-30T06:45:32;6.28;;;3.08;;
15356;SDS011;7778;48.792;9.260;2023-09-30T06:48:17;5.90;;;2.70;;
15356;SDS011;7778;48.792;9.260;2023-09-30T06:51:03;6.38;;;2.70;;
15356;SDS011;7778;48.792;9.260;2023-09-30T06:53:48;5.82;;;2.70;;
15356;SDS011;7778;48.792;9.260;2023-09-30T06:56:35;5.35;;;2.70;;
15356;SDS011;7778;48.792;9.260;2023-09-30T06:59:21;4.95;;;2.50;;
15356;SDS011;7778;48.792;9.260;2023-09-30T07:02:08;4.75;;;2.25;;
15356;SDS011;7778;48.792;9.260;2023-09-30T07:04:54;9.60;;;2.58;;
15356;SDS011;7778;48.792;9.260;2023-09-30T07:07:40;5.53;;;2.55;;
15356;SDS011;7778;48.792;9.260;2023-09-30T07:10:27;6.43;;;3.00;;
15356;SDS011;7778;48.792;9.260;2023-09-30T07:13:15;7.72;;;2.85;;
15356;SDS011;7778;48.792;9.260;2023-09-30T07:16:01;5.40;;;2.90;;
15356;SDS011;7778;48.792;9.260;2023-09-30T07:18:47;7.00;;;3.33;;
15356;SDS011;7778;48.792;9.260;2023-09-30T07:21:34;5.63;;;2.67;;
15356;SDS011;7778;48.792;9.260;2023-09-30T07:24:23;6.22;;;2.85;;
15356;SDS011;7778;48.792;9.260;2023-09-30T07:27:08;5.15;;;2.75;;
15356;SDS011;7778;48.792;9.260;2023-09-30T07:29:55;5.00;;;2.60;;
15356;SDS011;7778;48.792;9.260;2023-09-30T07:32:41;6.07;;;2.65;;
15356;SDS011;7778;48.792;9.260;2023-09-30T07:35:27;4.45;;;2.85;;
15356;SDS011;7778;48.792;9.260;2023-09-30T07:38:13;4.72;;;2.75;;
15356;SDS011;7778;48.792;9.260;2023-09-30T07:40:59;4.10;;;2.75;;
15356;SDS011;7778;48.792;9.260;2023-09-30T07:43:48;7.10;;;3.28;;
15356;SDS011;7778;48.792;9.260;2023-09-30T07:46:38;5.15;;;2.60;;
15356;SDS011;7778;48.792;9.260;2023-09-30T07:49:24;6.28;;;2.80;;
15356;SDS011;7778;48.792;9.260;2023-09-30T07:52:10;5.68;;;3.25;;
15356;SDS011;7778;48.792;9.260;2023-09-30T07:55:00;9.18;;;3.28;;
15356;SDS011;7778;48.792;9.260;2023-09-30T07:57:49;7.30;;;2.90;;
15356;SDS011;7778;48.792;9.260;2023-09-30T08:00:35;6.88;;;3.08;;
15356;SDS011;7778;48.792;9.260;2023-09-30T08:03:22;7.15;;;2.78;;
15356;SDS011;7778;48.792;9.260;2023-09-30T08:06:08;6.15;;;3.10;;
15356;SDS011;7778;48.792;9.260;2023-09-30T08:08:54;10.00;;;3.58;;
15356;SDS011;7778;48.792;9.260;2023-09-30T08:11:40;8.88;;;3.47;;
15356;SDS011;7778;48.792;9.260;2023-09-30T08:14:25;10.98;;;3.60;;
15356;SDS011;7778;48.792;9.260;2023-09-30T08:17:11;9.00;;;3.50;;
15356;SDS011;7778;48.792;9.260;2023-09-30T08:19:59;6.95;;;3.35;;
15356;SDS011;7778;48.792;9.260;2023-09-30T08:22:45;6.55;;;3.35;;
15356;SDS011;7778;48.792;9.260;2023-09-30T08:25:31;7.72;;;3.53;;
15356;SDS011;7778;48.792;9.260;2023-09-30T08:28:17;8.32;;;2.72;;
15356;SDS011;7778;48.792;9.260;2023-09-30T08:31:02;4.93;;;3.30;;
15356;SDS011;7778;48.792;9.260;2023-09-30T08:33:48;5.68;;;2.92;;
15356;SDS011;7778;48.792;9.260;2023-09-30T08:36:35;5.72;;;2.92;;
15356;SDS011;7778;48.792;9.260;2023-09-30T08:39:21;8.68;;;3.83;;
15356;SDS011;7778;48.792;9.260;2023-09-30T08:42:08;7.30;;;3.55;;
15356;SDS011;7778;48.792;9.260;2023-09-30T08:44:56;8.50;;;3.58;;
15356;SDS011;7778;48.792;9.260;2023-09-30T08:47:41;6.30;;;3.65;;
15356;SDS011;7778;48.792;9.260;2023-09-30T08:50:27;6.82;;;3.42;;
15356;SDS011;7778;48.792;9.260;2023-09-30T08:53:14;8.02;;;3.40;;
15356;SDS011;7778;48.792;9.260;2023-09-30T08:56:01;6.35;;;3.60;;
15356;SDS011;7778;48.792;9.260;2023-09-30T08:58:54;10.93;;;4.05;;
15356;SDS011;7778;48.792;9.260;2023-09-30T09:01:43;5.57;;;2.80;;
15356;SDS011;7778;48.792;9.260;2023-09-30T09:04:29;5.22;;;3.05;;
15356;SDS011;7778;48.792;9.260;2023-09-30T09:07:15;9.95;;;3.90;;
15356;SDS011;7778;48.792;9.260;2023-09-30T09:10:06;5.88;;;2.90;;
15356;SDS011;7778;48.792;9.260;2023-09-30T09:12:57;6.57;;;3.33;;
15356;SDS011;7778;48.792;9.260;2023-09-30T09:15:43;6.40;;;3.83;;
15356;SDS011;7778;48.792;9.260;2023-09-30T09:18:32;6.22;;;3.38;;
15356;SDS011;7778;48.792;9.260;2023-09-30T09:21:19;6.95;;;3.50;;
15356;SDS011;7778;48.792;9.260;2023-09-30T09:24:07;4.90;;;3.20;;
15356;SDS011;7778;48.792;9.260;2023-09-30T09:26:55;5.78;;;3.15;;
15356;SDS011;7778;48.792;9.260;2023-09-30T09:29:50;7.32;;;3.45;;
15356;SDS011;7778;48.792;9.260;2023-09-30T09:32:35;6.53;;;2.92;;
15356;SDS011;7778;48.792;9.260;2023-09-30T09:35:21;9.27;;;3.00;;
15356;SDS011;7778;48.792;9.260;2023-09-30T09:38:09;6.15;;;2.45;;
15356;SDS011;7778;48.792;9.260;2023-09-30T09:40:58;10.98;;;3.53;;
15356;SDS011;7778;48.792;9.260;2023-09-30T09:43:46;4.63;;;2.67;;
15356;SDS011;7778;48.792;9.260;2023-09-30T09:46:34;7.75;;;3.30;;
15356;SDS011;7778;48.792;9.260;2023-09-30T09:49:21;7.47;;;2.97;;
15356;SDS011;7778;48.792;9.260;2023-09-30T09:52:06;5.30;;;2.95;;
15356;SDS011;7778;48.792;9.260;2023-09-30T09:54:53;6.32;;;2.60;;
15356;SDS011;7778;48.792;9.260;2023-09-30T09:57:38;9.32;;;3.60;;
15356;SDS011;7778;48.792;9.260;2023-09-30T10:00:26;6.88;;;3.20;;
15356;SDS011;7778;48.792;9.260;2023-09-30T10:03:15;7.65;;;3.53;;
15356;SDS011;7778;48.792;9.260;2023-09-30T10:06:00;4.55;;;3.17;;
15356;SDS011;7778;48.792;9.260;2023-09-30T10:08:48;5.65;;;3.42;;
15356;SDS011;7778;48.792;9.260;2023-09-30T10:11:36;8.98;;;3.85;;
15356;SDS011;7778;48.792;9.260;2023-09-30T10:14:30;5.50;;;3.08;;
15356;SDS011;7778;48.792;9.260;2023-09-30T10:17:19;7.80;;;3.47;;
15356;SDS011;7778;48.792;9.260;2023-09-30T10:20:05;6.65;;;3.20;;
15356;SDS011;7778;48.792;9.260;2023-09-30T10:26:17;5.30;;;2.63;;
15356;SDS011;7778;48.792;9.260;2023-09-30T10:29:08;5.43;;;2.90;;
15356;SDS011;7778;48.792;9.260;2023-09-30T10:31:54;6.68;;;3.30;;
15356;SDS011;7778;48.792;9.260;2023-09-30T10:34:41;5.90;;;2.92;;
15356;SDS011;7778;48.792;9.260;2023-09-30T10:37:33;9.82;;;3.58;;
15356;SDS011;7778;48.792;9.260;2023-09-30T10:40:25;9.82;;;3.33;;
15356;SDS011;7778;48.792;9.260;2023-09-30T10:43:22;5.07;;;2.67;;
15356;SDS011;7778;48.792;9.260;2023-09-30T10:46:31;7.75;;;2.95;;
15356;SDS011;7778;48.792;9.260;2023-09-30T10:49:30;9.63;;;3.60;;
15356;SDS011;7778;48.792;9.260;2023-09-30T10:52:22;6.47;;;3.15;;
15356;SDS011;7778;48.792;9.260;2023-09-30T10:55:08;9.65;;;3.53;;
15356;SDS011;7778;48.792;9.260;2023-09-30T10:57:54;9.32;;;3.65;;
15356;SDS011;7778;48.792;9.260;2023-09-30T11:00:51;7.57;;;3.50;;
15356;SDS011;7778;48.792;9.260;2023-09-30T11:03:38;9.13;;;4.22;;
15356;SDS011;7778;48.792;9.260;2023-09-30T11:06:24;10.27;;;3.63;;
15356;SDS011;7778;48.792;9.260;2023-09-30T11:09:14;10.32;;;3.95;;
15356;SDS011;7778;48.792;9.260;2023-09-30T11:12:03;9.88;;;3.50;;
15356;SDS011;7778;48.792;9.260;2023-09-30T11:14:58;9.25;;;3.67;;
15356;SDS011;7778;48.792;9.260;2023-09-30T11:17:45;8.00;;;3.50;;
15356;SDS011;7778;48.792;9.260;2023-09-30T11:20:30;8.98;;;4.40;;
15356;SDS011;7778;48.792;9.260;2023-09-30T11:23:19;9.13;;;4.25;;
15356;SDS011;7778;48.792;9.260;2023-09-30T11:26:06;10.85;;;3.60;;
15356;SDS011;7778;48.792;9.260;2023-09-30T11:28:53;8.57;;;3.70;;
15356;SDS011;7778;48.792;9.260;2023-09-30T11:31:40;8.00;;;3.58;;
15356;SDS011;7778;48.792;9.260;2023-09-30T11:34:33;8.27;;;4.03;;
15356;SDS011;7778;48.792;9.260;2023-09-30T11:37:21;10.85;;;3.90;;
15356;SDS011;7778;48.792;9.260;2023-09-30T11:40:10;9.07;;;3.75;;
15356;SDS011;7778;48.792;9.260;2023-09-30T11:43:08;11.45;;;4.18;;
15356;SDS011;7778;48.792;9.260;2023-09-30T11:46:06;8.48;;;3.67;;
15356;SDS011;7778;48.792;9.260;2023-09-30T11:48:56;8.80;;;3.60;;
15356;SDS011;7778;48.792;9.260;2023-09-30T11:51:44;7.78;;;3.33;;
15356;SDS011;7778;48.792;9.260;2023-09-30T11:54:31;7.63;;;3.42;;
15356;SDS011;7778;48.792;9.260;2023-09-30T11:57:18;9.30;;;3.83;;
15356;SDS011;7778;48.792;9.260;2023-09-30T12:00:07;8.40;;;3.60;;
15356;SDS011;7778;48.792;9.260;2023-09-30T12:02:57;7.38;;;3.38;;
15356;SDS011;7778;48.792;9.260;2023-09-30T12:05:42;10.85;;;4.22;;
15356;SDS011;7778;48.792;9.260;2023-09-30T12:08:29;5.55;;;3.42;;
15356;SDS011;7778;48.792;9.260;2023-09-30T12:11:15;8.15;;;3.55;;
15356;SDS011;7778;48.792;9.260;2023-09-30T12:14:01;9.75;;;3.85;;
15356;SDS011;7778;48.792;9.260;2023-09-30T12:16:49;7.93;;;3.42;;
15356;SDS011;7778;48.792;9.260;2023-09-30T12:19:35;11.40;;;3.85;;
15356;SDS011;7778;48.792;9.260;2023-09-30T12:22:24;7.75;;;3.80;;
15356;SDS011;7778;48.792;9.260;2023-09-30T12:25:09;9.18;;;3.85;;
15356;SDS011;7778;48.792;9.260;2023-09-30T12:28:05;7.97;;;3.67;;
15356;SDS011;7778;48.792;9.260;2023-09-30T12:30:51;9.48;;;3.88;;
15356;SDS011;7778;48.792;9.260;2023-09-30T12:33:38;6.63;;;3.72;;
15356;SDS011;7778;48.792;9.260;2023-09-30T12:36:24;9.38;;;3.40;;
15356;SDS011;7778;48.792;9.260;2023-09-30T12:39:10;8.68;;;3.75;;
15356;SDS011;7778;48.792;9.260;2023-09-30T12:41:56;9.43;;;3.78;;
15356;SDS011;7778;48.792;9.260;2023-09-30T12:44:42;7.55;;;3.60;;
15356;SDS011;7778;48.792;9.260;2023-09-30T12:47:27;9.90;;;4.05;;
15356;SDS011;7778;48.792;9.260;2023-09-30T12:50:14;7.10;;;3.70;;
15356;SDS011;7778;48.792;9.260;2023-09-30T12:53:00;10.73;;;4.35;;
15356;SDS011;7778;48.792;9.260;2023-09-30T12:55:46;8.52;;;3.40;;
15356;SDS011;7778;48.792;9.260;2023-09-30T12:58:32;10.75;;;3.85;;
15356;SDS011;7778;48.792;9.260;2023-09-30T13:01:17;9.18;;;3.95;;
15356;SDS011;7778;48.792;9.260;2023-09-30T13:04:03;8.95;;;3.67;;
15356;SDS011;7778;48.792;9.260;2023-09-30T13:06:52;7.32;;;3.20;;
15356;SDS011;7778;48.792;9.260;2023-09-30T13:09:39;10.80;;;3.88;;
15356;SDS011;7778;48.792;9.260;2023-09-30T13:12:25;7.43;;;3.35;;
15356;SDS011;7778;48.792;9.260;2023-09-30T13:15:11;9.27;;;3.78;;
15356;SDS011;7778;48.792;9.260;2023-09-30T13:17:57;9.90;;;3.80;;
15356;SDS011;7778;48.792;9.260;2023-09-30T13:20:43;9.45;;;3.55;;
15356;SDS011;7778;48.792;9.260;2023-09-30T13:23:31;9.82;;;4.18;;
15356;SDS011;7778;48.792;9.260;2023-09-30T13:26:17;11.43;;;3.90;;
15356;SDS011;7778;48.792;9.260;2023-09-30T13:29:03;10.20;;;3.85;;
15356;SDS011;7778;48.792;9.260;2023-09-30T13:31:50;8.55;;;3.38;;
15356;SDS011;7778;48.792;9.260;2023-09-30T13:34:36;7.18;;;3.65;;
15356;SDS011;7778;48.792;9.260;2023-09-30T13:37:22;7.13;;;3.25;;
15356;SDS011;7778;48.792;9.260;2023-09-30T13:40:15;6.80;;;3.38;;
15356;SDS011;7778;48.792;9.260;2023-09-30T13:43:01;7.90;;;3.92;;
15356;SDS011;7778;48.792;9.260;2023-09-30T13:45:49;8.75;;;4.18;;
15356;SDS011;7778;48.792;9.260;2023-09-30T13:48:35;11.77;;;3.78;;
15356;SDS011;7778;48.792;9.260;2023-09-30T13:51:21;10.50;;;3.80;;
15356;SDS011;7778;48.792;9.260;2023-09-30T13:54:06;10.73;;;4.10;;
15356;SDS011;7778;48.792;9.260;2023-09-30T13:56:54;7.43;;;3.65;;
15356;SDS011;7778;48.792;9.260;2023-09-30T13:59:39;12.32;;;4.18;;
15356;SDS011;7778;48.792;9.260;2023-09-30T14:02:26;7.53;;;3.25;;
15356;SDS011;7778;48.792;9.260;2023-09-30T14:05:12;10.23;;;4.20;;
15356;SDS011;7778;48.792;9.260;2023-09-30T14:07:58;10.85;;;4.90;;
15356;SDS011;7778;48.792;9.260;2023-09-30T14:10:45;7.07;;;3.33;;
15356;SDS011;7778;48.792;9.260;2023-09-30T14:13:33;10.23;;;3.65;;
15356;SDS011;7778;48.792;9.260;2023-09-30T14:16:19;8.60;;;3.95;;
15356;SDS011;7778;48.792;9.260;2023-09-30T14:19:04;9.48;;;4.00;;
15356;SDS011;7778;48.792;9.260;2023-09-30T14:21:50;11.57;;;4.18;;
15356;SDS011;7778;48.792;9.260;2023-09-30T14:24:35;8.38;;;3.35;;
15356;SDS011;7778;48.792;9.260;2023-09-30T14:27:21;9.88;;;4.10;;
15356;SDS011;7778;48.792;9.260;2023-09-30T14:30:09;9.60;;;3.80;;
15356;SDS011;7778;48.792;9.260;2023-09-30T14:32:56;7.45;;;3.67;;
15356;SDS011;7778;48.792;9.260;2023-09-30T14:35:41;13.43;;;5.13;;
15356;SDS011;7778;48.792;9.260;2023-09-30T14:38:28;9.05;;;4.30;;
15356;SDS011;7778;48.792;9.260;2023-09-30T14:41:13;9.10;;;3.50;;
15356;SDS011;7778;48.792;9.260;2023-09-30T14:43:59;8.88;;;3.95;;
15356;SDS011;7778;48.792;9.260;2023-09-30T14:46:46;6.65;;;2.80;;
15356;SDS011;7778;48.792;9.260;2023-09-30T14:49:32;9.07;;;3.45;;
15356;SDS011;7778;48.792;9.260;2023-09-30T14:52:18;8.40;;;3.78;;
15356;SDS011;7778;48.792;9.260;2023-09-30T14:55:04;11.95;;;4.53;;
15356;SDS011;7778;48.792;9.260;2023-09-30T14:57:50;9.07;;;4.50;;
15356;SDS011;7778;48.792;9.260;2023-09-30T15:00:35;10.20;;;4.20;;
15356;SDS011;7778;48.792;9.260;2023-09-30T15:03:22;9.27;;;4.10;;
15356;SDS011;7778;48.792;9.260;2023-09-30T15:06:08;8.07;;;4.45;;
15356;SDS011;7778;48.792;9.260;2023-09-30T15:08:53;8.90;;;4.30;;
15356;SDS011;7778;48.792;9.260;2023-09-30T15:11:39;11.35;;;5.15;;
15356;SDS011;7778;48.792;9.260;2023-09-30T15:14:25;11.60;;;4.20;;
15356;SDS011;7778;48.792;9.260;2023-09-30T15:17:11;6.53;;;3.10;;
15356;SDS011;7778;48.792;9.260;2023-09-30T15:19:59;7.50;;;3.20;;
15356;SDS011;7778;48.792;9.260;2023-09-30T15:22:44;8.70;;;3.60;;
15356;SDS011;7778;48.792;9.260;2023-09-30T15:25:30;8.60;;;3.70;;
15356;SDS011;7778;48.792;9.260;2023-09-30T15:28:16;8.05;;;3.97;;
15356;SDS011;7778;48.792;9.260;2023-09-30T15:31:01;7.53;;;3.42;;
15356;SDS011;7778;48.792;9.260;2023-09-30T15:33:48;8.23;;;3.53;;
15356;SDS011;7778;48.792;9.260;2023-09-30T15:36:35;7.57;;;3.38;;
15356;SDS011;7778;48.792;9.260;2023-09-30T15:39:20;6.70;;;3.30;;
15356;SDS011;7778;48.792;9.260;2023-09-30T15:42:06;10.88;;;4.35;;
15356;SDS011;7778;48.792;9.260;2023-09-30T15:44:55;10.75;;;5.30;;
15356;SDS011;7778;48.792;9.260;2023-09-30T15:47:42;11.55;;;4.60;;
15356;SDS011;7778;48.792;9.260;2023-09-30T15:50:27;8.85;;;4.13;;
15356;SDS011;7778;48.792;9.260;2023-09-30T15:53:14;9.07;;;4.32;;
15356;SDS011;7778;48.792;9.260;2023-09-30T15:56:00;9.82;;;4.25;;
15356;SDS011;7778;48.792;9.260;2023-09-30T15:58:46;9.23;;;3.72;;
15356;SDS011;7778;48.792;9.260;2023-09-30T16:01:31;9.32;;;3.50;;
15356;SDS011;7778;48.792;9.260;2023-09-30T16:04:17;9.85;;;3.97;;
15356;SDS011;7778;48.792;9.260;2023-09-30T16:07:03;9.52;;;3.70;;
15356;SDS011;7778;48.792;9.260;2023-09-30T16:09:49;12.15;;;3.85;;
15356;SDS011;7778;48.792;9.260;2023-09-30T16:12:35;11.00;;;4.20;;
15356;SDS011;7778;48.792;9.260;2023-09-30T16:15:23;9.88;;;3.90;;
15356;SDS011;7778;48.792;9.260;2023-09-30T16:18:09;9.30;;;3.67;;
15356;SDS011;7778;48.792;9.260;2023-09-30T16:20:55;8.68;;;3.83;;
15356;SDS011;7778;48.792;9.260;2023-09-30T16:23:41;11.73;;;4.07;;
15356;SDS011;7778;48.792;9.260;2023-09-30T16:26:28;13.35;;;3.90;;
15356;SDS011;7778;48.792;9.260;2023-09-30T16:29:16;9.35;;;3.92;;
15356;SDS011;7778;48.792;9.260;2023-09-30T16:32:02;9.60;;;4.05;;
15356;SDS011;7778;48.792;9.260;2023-09-30T16:34:51;11.52;;;3.45;;
15356;SDS011;7778;48.792;9.260;2023-09-30T16:37:37;9.45;;;3.80;;
15356;SDS011;7778;48.792;9.260;2023-09-30T16:40:23;9.38;;;4.03;;
15356;SDS011;7778;48.792;9.260;2023-09-30T16:43:10;7.25;;;3.05;;
15356;SDS011;7778;48.792;9.260;2023-09-30T16:45:58;11.65;;;4.05;;
15356;SDS011;7778;48.792;9.260;2023-09-30T16:48:45;12.98;;;4.15;;
15356;SDS011;7778;48.792;9.260;2023-09-30T16:51:31;7.78;;;3.50;;
15356;SDS011;7778;48.792;9.260;2023-09-30T16:54:17;8.57;;;4.25;;
15356;SDS011;7778;48.792;9.260;2023-09-30T16:57:03;9.70;;;4.15;;
15356;SDS011;7778;48.792;9.260;2023-09-30T16:59:50;12.73;;;5.15;;
15356;SDS011;7778;48.792;9.260;2023-09-30T17:02:38;14.90;;;5.57;;